KRNM

Details ICAO KRNM (RNM)
Name RAMONA
Region United States
Timezone America/Los_Angeles (UTC-7.0)
Plans Departing 18
Arriving 10
Stats Elevation 1,395 ft / 425 m (AMSL)
Location 33.039155° -116.915256°
Runways 1
Magnetic Variation 11.485° E
Sunrise 2018-05-24 12:44:19 UTC / 2018-05-24 05:44:19 Local
Sunset 2018-05-25 02:47:37 UTC / 2018-05-24 19:47:37 Local
Advertisement - Login to hide

Runways

ID Width Length Bearing (true) Bearing (mag) Surface Threshold Offset Overrun Length
09 151 ft / 46 m 5,005 ft / 1,526 m 99.90° 88.42° Asphalt 0 ft / 0 m 0 ft / 0 m
27 151 ft / 46 m 5,005 ft / 1,526 m 279.90° 268.42° Asphalt 0 ft / 0 m 0 ft / 0 m

Map

Weather


0- 5 10 15 20 25 30 35+ Temperature / ° C

Clouds and Precipitation
Forecast for 2018-05-25 06:00 UTC. Updated 2 hours ago

Ground ~20,000 ft ~40,000 ft Winds

METAR

KRNM 250653Z AUTO 27007KT 10SM BKN010 BKN015 OVC021 13/12 A3011 RMK AO2 SLP187 T01330117

TAF

Not found

Frequencies

Recorded 132.02 MHz ATIS
Ground 121.65 MHz GND
Approach 132.20 MHz SOCAL APP
Unicom 122.95 MHz CTAF/UNICOM
Tower 119.87 MHz TWR
Departure 127.30 MHz SOCAL DEP
Warning: Do not use this data for real-world aviation or navigation. No guarantee of current accuracy is given.